Time;durP1;ratioP1;P1;durP2;ratioP2;P2;SDS_P1;SDS_P2;PMS_P1;PMS_P2;Temp;Humidity;BMP_temperature;BMP_pressure;BME280_temperature;BME280_humidity;BME280_pressure;Samples;Min_cycle;Max_cycle;Signal;HPM_P1;HPM_P2
2022/12/05 00:01:16;;;;;;;;;;;18.30;45.50;;;;;;5061465;28;19922;-56
2022/12/05 00:03:41;;;;;;;;;;;18.30;45.50;;;;;;5062908;28;20348;-55
2022/12/05 00:06:07;;;;;;;;;;;18.30;45.50;;;;;;5061306;28;19942;-56
2022/12/05 00:08:32;;;;;;;;;;;18.30;45.70;;;;;;5059874;28;20003;-56
2022/12/05 00:10:57;;;;;;;;;;;18.30;45.80;;;;;;5056307;28;19921;-55
2022/12/05 00:13:23;;;;;;;;;;;18.30;45.80;;;;;;5059605;28;19912;-56
2022/12/05 00:15:48;;;;;;;;;;;18.20;45.80;;;;;;5056392;28;19930;-55
2022/12/05 00:18:14;;;;;;;;;;;18.10;45.80;;;;;;5061034;28;19923;-55
2022/12/05 00:20:46;;;;;;;;;;;18.10;46.00;;;;;;5046901;27;19935;-54
2022/12/05 00:23:11;;;;;;;;;;;18.10;46.80;;;;;;5057998;28;20007;-54
2022/12/05 00:25:37;;;;;;;;;;;18.00;46.20;;;;;;5056793;28;20005;-56
2022/12/05 00:28:02;;;;;;;;;;;18.00;46.30;;;;;;5056500;27;19913;-55
2022/12/05 00:30:27;;;;;;;;;;;17.90;46.20;;;;;;5058444;27;19917;-56
2022/12/05 00:32:53;;;;;;;;;;;17.90;46.30;;;;;;5058905;28;19916;-55
2022/12/05 00:35:18;;;;;;;;;;;17.90;46.40;;;;;;5059600;28;19917;-56
2022/12/05 00:37:44;;;;;;;;;;;17.90;46.50;;;;;;5057823;28;19946;-55
2022/12/05 00:40:09;;;;;;;;;;;17.90;46.40;;;;;;5060423;28;20004;-55
2022/12/05 00:42:35;;;;;;;;;;;17.90;46.40;;;;;;5058083;28;19920;-55
2022/12/05 00:45:00;;;;;;;;;;;17.80;46.40;;;;;;5060768;28;19913;-53
2022/12/05 00:47:25;;;;;;;;;;;17.80;46.40;;;;;;5055486;28;19917;-54
2022/12/05 00:49:51;;;;;;;;;;;17.80;46.40;;;;;;5056695;28;19920;-56
2022/12/05 00:52:16;;;;;;;;;;;17.80;46.50;;;;;;5055597;28;19915;-55
2022/12/05 00:54:42;;;;;;;;;;;17.80;46.50;;;;;;5062188;28;19993;-55
2022/12/05 00:57:07;;;;;;;;;;;17.70;46.50;;;;;;5061247;28;19942;-56
2022/12/05 00:59:33;;;;;;;;;;;17.70;46.50;;;;;;5056777;28;19974;-55
2022/12/05 01:01:58;;;;;;;;;;;17.80;46.50;;;;;;5070268;27;19964;-54
2022/12/05 01:04:24;;;;;;;;;;;17.80;46.30;;;;;;5057011;28;19968;-55
2022/12/05 01:06:49;;;;;;;;;;;17.80;46.30;;;;;;5059889;28;19923;-54
2022/12/05 01:09:16;;;;;;;;;;;17.90;46.40;;;;;;5060417;28;19917;-54
2022/12/05 01:11:41;;;;;;;;;;;17.90;46.40;;;;;;5061423;28;19961;-57
2022/12/05 01:14:07;;;;;;;;;;;17.90;46.40;;;;;;5060359;28;19920;-55
2022/12/05 01:16:33;;;;;;;;;;;17.90;46.20;;;;;;5070059;27;19919;-55
2022/12/05 01:19:00;;;;;;;;;;;17.90;46.30;;;;;;5060399;27;19921;-55
2022/12/05 01:21:25;;;;;;;;;;;17.90;46.30;;;;;;5059775;28;19955;-55
2022/12/05 01:23:51;;;;;;;;;;;17.90;46.20;;;;;;5059201;28;19913;-56
2022/12/05 01:26:17;;;;;;;;;;;17.90;46.30;;;;;;5059439;28;19913;-56
2022/12/05 01:28:42;;;;;;;;;;;17.90;46.30;;;;;;5060332;28;19995;-55
2022/12/05 01:31:09;;;;;;;;;;;17.90;46.40;;;;;;5056776;28;20008;-56
2022/12/05 01:33:35;;;;;;;;;;;17.90;46.30;;;;;;5071597;27;19912;-55
2022/12/05 01:36:01;;;;;;;;;;;17.90;46.40;;;;;;5057094;27;19919;-55
2022/12/05 01:38:29;;;;;;;;;;;17.90;46.40;;;;;;5071632;27;20268;-55
2022/12/05 01:41:01;;;;;;;;;;;17.80;46.30;;;;;;5061493;28;19912;-55
2022/12/05 01:43:27;;;;;;;;;;;17.80;46.40;;;;;;5060639;28;19912;-56
2022/12/05 01:45:52;;;;;;;;;;;17.80;46.40;;;;;;5057930;28;19931;-56
2022/12/05 01:48:25;;;;;;;;;;;17.80;46.40;;;;;;5059576;28;20459;-55
2022/12/05 01:50:51;;;;;;;;;;;17.80;46.40;;;;;;5063134;28;20318;-55
2022/12/05 01:53:16;;;;;;;;;;;17.80;46.50;;;;;;5059388;28;20023;-56
2022/12/05 01:55:42;;;;;;;;;;;17.70;46.40;;;;;;5056886;28;19991;-55
2022/12/05 01:58:07;;;;;;;;;;;17.80;46.60;;;;;;5052204;27;19971;-55
2022/12/05 02:00:32;;;;;;;;;;;17.80;46.60;;;;;;5038016;28;19920;-56
2022/12/05 02:02:59;;;;;;;;;;;17.80;46.60;;;;;;5060376;28;19916;-54
2022/12/05 02:05:35;;;;;;;;;;;17.80;46.50;;;;;;5059514;28;19919;-55
2022/12/05 02:08:04;;;;;;;;;;;17.80;46.50;;;;;;5061452;27;19912;-57
2022/12/05 02:10:32;;;;;;;;;;;17.80;46.50;;;;;;5053973;28;19917;-54
2022/12/05 02:12:58;;;;;;;;;;;17.80;46.50;;;;;;5051943;27;20372;-53
2022/12/05 02:15:27;;;;;;;;;;;17.70;46.50;;;;;;5045456;27;19924;-56
2022/12/05 02:17:57;;;;;;;;;;;17.70;46.60;;;;;;5044266;27;19931;-55
2022/12/05 02:20:38;;;;;;;;;;;17.70;46.50;;;;;;5057044;28;19928;-55
2022/12/05 02:23:10;;;;;;;;;;;17.70;46.50;;;;;;5031242;28;19921;-54
2022/12/05 02:25:48;;;;;;;;;;;17.70;46.50;;;;;;5042050;27;20256;-54
2022/12/05 02:28:16;;;;;;;;;;;17.80;46.50;;;;;;5057683;27;20311;-56
2022/12/05 02:30:50;;;;;;;;;;;17.90;46.30;;;;;;5054460;28;19912;-56
2022/12/05 02:33:18;;;;;;;;;;;18.00;46.20;;;;;;5059377;28;19913;-56
2022/12/05 02:35:44;;;;;;;;;;;18.00;46.10;;;;;;5060748;27;19943;-55
2022/12/05 02:38:26;;;;;;;;;;;18.10;46.00;;;;;;5044066;27;19913;-55
2022/12/05 02:40:58;;;;;;;;;;;18.20;45.80;;;;;;5047812;27;19913;-55
2022/12/05 02:43:31;;;;;;;;;;;18.20;45.60;;;;;;5043436;28;19921;-56
2022/12/05 02:45:57;;;;;;;;;;;18.30;45.40;;;;;;5065686;27;20290;-56
2022/12/05 02:48:23;;;;;;;;;;;18.40;45.30;;;;;;5059340;28;19960;-55
2022/12/05 02:50:48;;;;;;;;;;;18.40;45.10;;;;;;5050259;27;20372;-56
2022/12/05 02:53:14;;;;;;;;;;;18.50;45.00;;;;;;5057191;28;19941;-56
2022/12/05 02:55:40;;;;;;;;;;;18.60;44.90;;;;;;5060520;27;19920;-56
2022/12/05 02:58:07;;;;;;;;;;;18.60;44.70;;;;;;5057058;27;19916;-55
2022/12/05 03:00:34;;;;;;;;;;;18.60;44.50;;;;;;5044342;28;20023;-55
2022/12/05 03:02:59;;;;;;;;;;;18.70;44.50;;;;;;5053525;28;19940;-55
2022/12/05 03:05:45;;;;;;;;;;;18.70;44.50;;;;;;5057684;28;19912;-54
2022/12/05 03:08:11;;;;;;;;;;;18.70;44.40;;;;;;5043836;28;19913;-55
2022/12/05 03:10:37;;;;;;;;;;;18.60;44.30;;;;;;5057828;28;19912;-56
2022/12/05 03:13:04;;;;;;;;;;;18.70;44.40;;;;;;5046472;28;19917;-54
2022/12/05 03:15:30;;;;;;;;;;;18.70;44.40;;;;;;5043807;27;20413;-56
2022/12/05 03:17:57;;;;;;;;;;;18.70;44.30;;;;;;5057411;28;19913;-55
2022/12/05 03:20:27;;;;;;;;;;;18.70;44.30;;;;;;5055663;28;19952;-55
2022/12/05 03:22:53;;;;;;;;;;;18.70;44.10;;;;;;5056800;28;19956;-55
2022/12/05 03:25:20;;;;;;;;;;;18.60;44.10;;;;;;5060023;28;19924;-55
2022/12/05 03:27:46;;;;;;;;;;;18.60;45.10;;;;;;5064245;28;20333;-54
2022/12/05 03:30:15;;;;;;;;;;;18.60;44.50;;;;;;5047879;27;19924;-55
2022/12/05 03:32:43;;;;;;;;;;;18.60;44.60;;;;;;5062227;28;19932;-56
2022/12/05 03:35:27;;;;;;;;;;;18.60;44.60;;;;;;5060862;28;19925;-56
2022/12/05 03:37:58;;;;;;;;;;;18.60;44.50;;;;;;5060449;28;19944;-55
2022/12/05 03:40:34;;;;;;;;;;;18.60;44.80;;;;;;5039367;27;19916;-56
2022/12/05 03:43:02;;;;;;;;;;;18.60;44.80;;;;;;5057642;28;19999;-55
2022/12/05 03:45:33;;;;;;;;;;;18.60;44.90;;;;;;5062084;28;19913;-56
2022/12/05 03:48:06;;;;;;;;;;;18.50;44.80;;;;;;5049301;27;19923;-55
2022/12/05 03:50:32;;;;;;;;;;;18.50;44.80;;;;;;5060754;28;19916;-55
2022/12/05 03:53:21;;;;;;;;;;;18.50;44.90;;;;;;5041557;28;19915;-55
2022/12/05 03:55:48;;;;;;;;;;;18.50;45.10;;;;;;5057606;27;19917;-55
2022/12/05 03:58:14;;;;;;;;;;;18.40;45.10;;;;;;5040859;28;19921;-55
2022/12/05 04:00:40;;;;;;;;;;;18.40;45.10;;;;;;5052923;27;19909;-56
2022/12/05 04:03:26;;;;;;;;;;;18.40;45.30;;;;;;5062518;28;19917;-55
2022/12/05 04:05:53;;;;;;;;;;;18.30;45.40;;;;;;5049286;28;19912;-54
2022/12/05 04:08:19;;;;;;;;;;;18.30;45.30;;;;;;5047426;27;20032;-56
2022/12/05 04:10:48;;;;;;;;;;;18.30;45.40;;;;;;5060385;27;19959;-56
2022/12/05 04:13:22;;;;;;;;;;;18.30;45.30;;;;;;5046716;28;20454;-55
2022/12/05 04:18:34;;;;;;;;;;;18.30;45.20;;;;;;5049117;27;20389;-54
2022/12/05 04:25:31;;;;;;;;;;;18.40;45.20;;;;;;5059825;27;19938;-55
2022/12/05 04:26:29;;;;;;;;;;;18.40;45.30;;;;;;5051576;27;19916;-55
2022/12/05 04:28:59;;;;;;;;;;;18.40;45.30;;;;;;5058397;28;19920;-56
2022/12/05 04:31:25;;;;;;;;;;;18.40;45.40;;;;;;5057119;28;20271;-55
2022/12/05 04:33:55;;;;;;;;;;;18.40;45.40;;;;;;5047608;27;20428;-55
2022/12/05 04:36:41;;;;;;;;;;;18.30;45.30;;;;;;5063508;27;19917;-55
2022/12/05 04:39:08;;;;;;;;;;;18.30;45.40;;;;;;5045773;28;20376;-55
2022/12/05 04:41:38;;;;;;;;;;;18.40;45.40;;;;;;5068813;27;20047;-56
2022/12/05 04:44:07;;;;;;;;;;;18.30;45.30;;;;;;5048036;27;19924;-55
2022/12/05 04:46:33;;;;;;;;;;;18.30;45.40;;;;;;5051157;27;19938;-56
2022/12/05 04:48:59;;;;;;;;;;;18.30;45.20;;;;;;5061767;28;20035;-54
2022/12/05 04:51:25;;;;;;;;;;;18.30;45.30;;;;;;5045675;27;19921;-56
2022/12/05 04:53:52;;;;;;;;;;;18.30;45.50;;;;;;5058813;28;19924;-55
2022/12/05 04:56:18;;;;;;;;;;;18.30;45.40;;;;;;5046466;27;19916;-55
2022/12/05 04:58:43;;;;;;;;;;;18.30;45.50;;;;;;5053455;27;19917;-55
2022/12/05 05:01:28;;;;;;;;;;;18.30;45.30;;;;;;5059450;28;20037;-55
2022/12/05 05:03:54;;;;;;;;;;;18.30;45.20;;;;;;5073262;27;19928;-56
2022/12/05 05:06:19;;;;;;;;;;;18.30;45.20;;;;;;5059896;28;20012;-55
2022/12/05 05:08:49;;;;;;;;;;;18.30;45.20;;;;;;5063175;28;19957;-56
2022/12/05 05:11:24;;;;;;;;;;;18.40;45.20;;;;;;5059489;28;20267;-55
2022/12/05 05:13:50;;;;;;;;;;;18.40;45.20;;;;;;5059662;28;20590;-55
2022/12/05 05:16:17;;;;;;;;;;;18.40;45.20;;;;;;5060566;27;19916;-54
2022/12/05 05:18:43;;;;;;;;;;;18.40;45.40;;;;;;5059065;27;19978;-54
2022/12/05 05:21:13;;;;;;;;;;;18.40;45.30;;;;;;5063300;27;19929;-55
2022/12/05 05:23:38;;;;;;;;;;;18.40;45.30;;;;;;5061818;28;19916;-54
2022/12/05 05:26:04;;;;;;;;;;;18.40;45.30;;;;;;5057352;28;19920;-55
2022/12/05 05:28:29;;;;;;;;;;;18.50;45.30;;;;;;5059594;28;20111;-54
2022/12/05 05:30:55;;;;;;;;;;;18.40;45.10;;;;;;5058384;28;19966;-56
2022/12/05 05:33:20;;;;;;;;;;;18.50;45.10;;;;;;5044237;27;19925;-55
2022/12/05 05:35:46;;;;;;;;;;;18.50;45.10;;;;;;5055718;28;19924;-55
2022/12/05 05:38:11;;;;;;;;;;;18.50;45.00;;;;;;5060606;28;19971;-56
2022/12/05 05:40:36;;;;;;;;;;;18.50;45.10;;;;;;5057784;28;19913;-55
2022/12/05 05:43:02;;;;;;;;;;;18.50;45.00;;;;;;5058180;28;19919;-56
2022/12/05 05:45:27;;;;;;;;;;;18.50;45.00;;;;;;5060200;28;19922;-56
2022/12/05 05:47:53;;;;;;;;;;;18.50;45.10;;;;;;5060948;28;19920;-55
2022/12/05 05:50:18;;;;;;;;;;;18.40;45.00;;;;;;5059141;28;19916;-56
2022/12/05 05:52:44;;;;;;;;;;;18.40;45.10;;;;;;5061899;28;19948;-56
2022/12/05 05:55:09;;;;;;;;;;;18.40;45.80;;;;;;5060459;28;19917;-55
2022/12/05 05:57:35;;;;;;;;;;;18.50;45.10;;;;;;5058917;28;19920;-55
2022/12/05 06:00:01;;;;;;;;;;;18.40;45.00;;;;;;5057108;28;20000;-55
2022/12/05 06:02:30;;;;;;;;;;;18.50;45.00;;;;;;5059921;27;19941;-55
2022/12/05 06:04:55;;;;;;;;;;;18.50;45.00;;;;;;5056599;28;19913;-55
2022/12/05 06:07:21;;;;;;;;;;;18.40;45.00;;;;;;5069710;27;19916;-55
2022/12/05 06:09:46;;;;;;;;;;;18.40;44.80;;;;;;5054772;27;19952;-56
2022/12/05 06:12:12;;;;;;;;;;;18.50;44.90;;;;;;5055928;28;19916;-56
2022/12/05 06:14:37;;;;;;;;;;;18.40;44.90;;;;;;5057155;28;19917;-56
2022/12/05 06:17:03;;;;;;;;;;;18.40;44.90;;;;;;5062790;28;19945;-54
2022/12/05 06:19:29;;;;;;;;;;;18.40;45.00;;;;;;5057847;28;19960;-55
2022/12/05 06:21:54;;;;;;;;;;;18.40;45.10;;;;;;5056829;28;19920;-56
2022/12/05 06:24:20;;;;;;;;;;;18.40;45.10;;;;;;5056042;28;19917;-55
2022/12/05 06:26:45;;;;;;;;;;;18.30;45.10;;;;;;5065233;27;19965;-54
2022/12/05 06:29:11;;;;;;;;;;;18.30;44.90;;;;;;5059243;28;19923;-55
2022/12/05 06:31:36;;;;;;;;;;;18.30;45.00;;;;;;5057479;28;19959;-55
2022/12/05 06:34:02;;;;;;;;;;;18.40;45.10;;;;;;5061041;28;19913;-54
2022/12/05 06:36:28;;;;;;;;;;;18.30;45.00;;;;;;5056328;28;19968;-55
2022/12/05 06:38:55;;;;;;;;;;;18.30;45.10;;;;;;5061177;28;19943;-55
2022/12/05 06:41:23;;;;;;;;;;;18.30;45.10;;;;;;5057992;27;20435;-56
2022/12/05 06:43:50;;;;;;;;;;;18.30;45.20;;;;;;5059630;27;19912;-55
2022/12/05 06:46:15;;;;;;;;;;;18.30;45.20;;;;;;5055780;27;19913;-55
2022/12/05 06:48:41;;;;;;;;;;;18.30;45.30;;;;;;5057080;27;20561;-55
2022/12/05 06:51:08;;;;;;;;;;;18.20;45.30;;;;;;5045831;27;19913;-56
2022/12/05 06:53:33;;;;;;;;;;;18.20;45.40;;;;;;5055812;28;19975;-54
2022/12/05 06:56:02;;;;;;;;;;;18.20;45.50;;;;;;5058476;28;19972;-55
2022/12/05 06:58:28;;;;;;;;;;;18.20;45.50;;;;;;5056645;28;19920;-55
2022/12/05 07:03:37;;;;;;;;;;;18.20;45.40;;;;;;5052495;28;19920;-56
2022/12/05 07:06:03;;;;;;;;;;;18.20;45.20;;;;;;5064899;27;20290;-56
2022/12/05 07:08:28;;;;;;;;;;;18.30;45.20;;;;;;5055978;28;20676;-55
2022/12/05 07:10:54;;;;;;;;;;;18.30;45.20;;;;;;5058962;28;19913;-55
2022/12/05 07:13:19;;;;;;;;;;;18.30;45.20;;;;;;5056444;28;19920;-55
2022/12/05 07:15:46;;;;;;;;;;;18.30;45.20;;;;;;5058852;27;20404;-55
2022/12/05 07:18:12;;;;;;;;;;;18.30;45.10;;;;;;5070249;27;19921;-55
2022/12/05 07:20:37;;;;;;;;;;;18.30;45.10;;;;;;5057471;28;20414;-55
2022/12/05 07:23:02;;;;;;;;;;;18.30;45.00;;;;;;5075433;27;20032;-55
2022/12/05 07:25:28;;;;;;;;;;;18.30;45.00;;;;;;5055896;28;19916;-55
2022/12/05 07:27:53;;;;;;;;;;;18.40;45.10;;;;;;5054339;28;20283;-55
2022/12/05 07:30:19;;;;;;;;;;;18.40;45.00;;;;;;5057754;28;20627;-56
2022/12/05 07:32:44;;;;;;;;;;;18.40;45.00;;;;;;5059834;27;19909;-55
2022/12/05 07:35:10;;;;;;;;;;;18.40;44.80;;;;;;5058334;28;19955;-55
2022/12/05 07:37:35;;;;;;;;;;;18.50;45.00;;;;;;5058610;28;19956;-55
2022/12/05 07:40:01;;;;;;;;;;;18.40;44.90;;;;;;5055935;27;19913;-55
2022/12/05 07:42:26;;;;;;;;;;;18.50;45.00;;;;;;5058865;28;19923;-54
2022/12/05 07:44:52;;;;;;;;;;;18.40;44.90;;;;;;5061757;27;20023;-56
2022/12/05 07:47:17;;;;;;;;;;;18.40;44.90;;;;;;5058108;27;19912;-55
2022/12/05 07:49:42;;;;;;;;;;;18.40;44.90;;;;;;5057683;27;19939;-55
2022/12/05 07:52:08;;;;;;;;;;;18.40;44.80;;;;;;5058857;27;19912;-55
2022/12/05 07:54:34;;;;;;;;;;;18.40;44.70;;;;;;5057801;27;19992;-55
2022/12/05 07:56:59;;;;;;;;;;;18.40;44.70;;;;;;5053658;28;19913;-55
2022/12/05 07:59:25;;;;;;;;;;;18.40;44.90;;;;;;5059145;28;19912;-55
2022/12/05 08:01:50;;;;;;;;;;;18.30;45.00;;;;;;5059933;28;19952;-55
2022/12/05 08:04:16;;;;;;;;;;;18.30;44.90;;;;;;5060131;28;19912;-56
2022/12/05 08:06:41;;;;;;;;;;;18.30;45.10;;;;;;5058801;28;20121;-56
2022/12/05 08:09:07;;;;;;;;;;;18.30;45.10;;;;;;5060630;28;19951;-56
2022/12/05 08:11:35;;;;;;;;;;;18.40;45.20;;;;;;5065324;27;19956;-55
2022/12/05 08:14:01;;;;;;;;;;;18.30;45.10;;;;;;5062763;27;19915;-57
2022/12/05 08:16:27;;;;;;;;;;;18.30;45.20;;;;;;5060140;27;19916;-55
2022/12/05 08:18:53;;;;;;;;;;;18.40;45.20;;;;;;5058982;27;19915;-55
2022/12/05 08:21:18;;;;;;;;;;;18.30;45.20;;;;;;5054927;27;19921;-56
2022/12/05 08:23:44;;;;;;;;;;;18.40;45.10;;;;;;5038673;27;19912;-55
2022/12/05 08:26:10;;;;;;;;;;;18.50;44.90;;;;;;5054405;27;19913;-56
2022/12/05 08:28:36;;;;;;;;;;;18.80;44.60;;;;;;5067297;27;20400;-56
2022/12/05 08:31:02;;;;;;;;;;;19.10;44.00;;;;;;5044008;28;19970;-55
2022/12/05 08:33:28;;;;;;;;;;;19.40;43.80;;;;;;5058274;27;20004;-55
2022/12/05 08:35:53;;;;;;;;;;;19.60;43.40;;;;;;5057246;28;20084;-55
2022/12/05 08:38:19;;;;;;;;;;;19.80;43.10;;;;;;5059191;27;19932;-56
2022/12/05 08:40:46;;;;;;;;;;;20.00;42.80;;;;;;5071070;27;19920;-55
2022/12/05 08:43:12;;;;;;;;;;;20.10;42.60;;;;;;5062309;27;19920;-54
2022/12/05 08:45:37;;;;;;;;;;;20.20;42.50;;;;;;5067967;27;20375;-55
2022/12/05 08:48:03;;;;;;;;;;;20.30;42.40;;;;;;5067196;27;19917;-55
2022/12/05 08:50:28;;;;;;;;;;;20.30;42.30;;;;;;5080483;27;20036;-55
2022/12/05 08:52:53;;;;;;;;;;;20.40;42.30;;;;;;5071813;27;19929;-56
2022/12/05 08:55:19;;;;;;;;;;;20.40;42.20;;;;;;5061896;27;20375;-56
2022/12/05 08:57:44;;;;;;;;;;;20.50;42.20;;;;;;5076630;27;19917;-56
2022/12/05 09:00:10;;;;;;;;;;;20.50;42.20;;;;;;5058963;27;19932;-55
2022/12/05 09:02:35;;;;;;;;;;;20.60;42.30;;;;;;5085348;27;19939;-57
2022/12/05 09:05:01;;;;;;;;;;;20.60;42.10;;;;;;5061405;27;21745;-55
2022/12/05 09:07:27;;;;;;;;;;;20.70;42.30;;;;;;5057993;28;20384;-55
2022/12/05 09:09:52;;;;;;;;;;;20.70;42.30;;;;;;5053898;27;20008;-55
2022/12/05 09:12:18;;;;;;;;;;;20.70;42.40;;;;;;5057685;27;20117;-55
2022/12/05 09:14:43;;;;;;;;;;;20.70;42.30;;;;;;5060087;27;20031;-55
2022/12/05 09:17:09;;;;;;;;;;;20.70;42.30;;;;;;5069643;27;19924;-56
2022/12/05 09:19:34;;;;;;;;;;;20.70;42.30;;;;;;5087848;27;19922;-55
2022/12/05 09:22:00;;;;;;;;;;;20.80;42.40;;;;;;5113764;27;19926;-55
2022/12/05 09:24:25;;;;;;;;;;;20.80;42.30;;;;;;5096361;27;19931;-56
2022/12/05 09:26:51;;;;;;;;;;;20.80;42.30;;;;;;5051086;27;20287;-55
2022/12/05 09:29:16;;;;;;;;;;;20.80;42.30;;;;;;5065947;27;19916;-54
2022/12/05 09:31:41;;;;;;;;;;;20.80;42.30;;;;;;5070557;27;19916;-56
2022/12/05 09:34:07;;;;;;;;;;;20.90;42.30;;;;;;5080873;27;20007;-56
2022/12/05 09:36:33;;;;;;;;;;;20.90;42.20;;;;;;5059868;28;20269;-55
2022/12/05 09:38:59;;;;;;;;;;;20.90;42.20;;;;;;5054611;27;19979;-54
2022/12/05 09:42:03;;;;;;;;;;;21.00;42.20;;;;;;5065275;27;19924;-56
2022/12/05 09:44:19;;;;;;;;;;;21.00;42.40;;;;;;5097992;27;19916;-54
2022/12/05 09:47:00;;;;;;;;;;;21.00;42.20;;;;;;5071594;27;20394;-55
2022/12/05 09:49:25;;;;;;;;;;;21.10;42.30;;;;;;5083707;27;19913;-55
2022/12/05 09:51:51;;;;;;;;;;;21.10;42.20;;;;;;5046513;27;19913;-54
2022/12/05 09:54:16;;;;;;;;;;;21.10;42.20;;;;;;5055168;27;19916;-56
2022/12/05 09:56:42;;;;;;;;;;;21.20;42.20;;;;;;5078418;27;19919;-55
2022/12/05 09:59:10;;;;;;;;;;;21.20;42.10;;;;;;5077581;27;20285;-56
2022/12/05 10:01:40;;;;;;;;;;;21.20;42.10;;;;;;5033256;27;19913;-56
2022/12/05 10:04:16;;;;;;;;;;;21.20;42.20;;;;;;5051631;27;19925;-54
2022/12/05 10:06:54;;;;;;;;;;;21.20;42.20;;;;;;5077888;27;19915;-55
2022/12/05 10:09:41;;;;;;;;;;;21.20;42.00;;;;;;5077518;27;19909;-54
2022/12/05 10:12:25;;;;;;;;;;;21.20;42.00;;;;;;5064501;27;19921;-55
2022/12/05 10:15:03;;;;;;;;;;;21.20;42.00;;;;;;5059169;27;19928;-55
2022/12/05 10:17:33;;;;;;;;;;;21.20;42.20;;;;;;5111465;27;19918;-56
2022/12/05 10:19:59;;;;;;;;;;;21.20;42.30;;;;;;5036894;27;20435;-56
2022/12/05 10:22:27;;;;;;;;;;;21.30;42.30;;;;;;5118412;27;19945;-56
2022/12/05 10:24:53;;;;;;;;;;;21.30;42.20;;;;;;5041169;27;19912;-56
2022/12/05 10:27:25;;;;;;;;;;;21.30;42.40;;;;;;5042671;28;21295;-58
2022/12/05 10:29:57;;;;;;;;;;;21.30;42.30;;;;;;5060313;27;19913;-57
2022/12/05 10:32:24;;;;;;;;;;;21.30;42.30;;;;;;5085178;27;20032;-55
2022/12/05 10:34:50;;;;;;;;;;;21.30;42.40;;;;;;5057494;27;20325;-54
2022/12/05 10:37:19;;;;;;;;;;;21.30;42.40;;;;;;5075426;27;19957;-55
2022/12/05 10:39:45;;;;;;;;;;;21.40;42.30;;;;;;5091256;27;19915;-56
2022/12/05 10:42:19;;;;;;;;;;;21.40;42.20;;;;;;5054305;27;19918;-56
2022/12/05 10:44:44;;;;;;;;;;;21.40;42.10;;;;;;5046528;27;20367;-56
2022/12/05 10:47:09;;;;;;;;;;;21.40;42.10;;;;;;5065884;27;19919;-56
2022/12/05 10:49:35;;;;;;;;;;;21.50;42.20;;;;;;5096695;27;19919;-55
2022/12/05 10:52:01;;;;;;;;;;;21.40;42.00;;;;;;5053526;27;20289;-55
2022/12/05 10:54:30;;;;;;;;;;;21.50;42.20;;;;;;5059338;27;20366;-55
2022/12/05 10:56:55;;;;;;;;;;;21.40;42.10;;;;;;5052552;27;20300;-55
2022/12/05 10:59:24;;;;;;;;;;;21.50;42.10;;;;;;5055569;27;19909;-56
2022/12/05 11:01:51;;;;;;;;;;;21.50;42.00;;;;;;5093440;27;19960;-56
2022/12/05 11:04:27;;;;;;;;;;;21.50;42.10;;;;;;5063443;27;20031;-56
2022/12/05 11:07:00;;;;;;;;;;;21.50;42.80;;;;;;5042220;28;19924;-56
2022/12/05 11:09:29;;;;;;;;;;;21.50;42.20;;;;;;5079822;27;19912;-56
2022/12/05 11:12:12;;;;;;;;;;;21.50;42.10;;;;;;5042223;28;19921;-56
2022/12/05 11:14:38;;;;;;;;;;;21.60;42.10;;;;;;5039827;27;19921;-55
2022/12/05 11:17:03;;;;;;;;;;;21.60;42.10;;;;;;5090276;27;19919;-57
2022/12/05 11:19:30;;;;;;;;;;;21.60;42.20;;;;;;5067231;27;20284;-55
2022/12/05 11:21:56;;;;;;;;;;;21.60;42.20;;;;;;5122322;27;19920;-57
2022/12/05 11:24:24;;;;;;;;;;;21.50;42.30;;;;;;5062791;27;19923;-56
2022/12/05 11:26:50;;;;;;;;;;;21.60;42.20;;;;;;5053406;27;20441;-56
2022/12/05 11:29:42;;;;;;;;;;;21.60;42.30;;;;;;5066336;27;19916;-55
2022/12/05 11:32:17;;;;;;;;;;;21.50;42.20;;;;;;5041203;27;19916;-56
2022/12/05 11:34:45;;;;;;;;;;;21.50;42.40;;;;;;5059749;27;19920;-57
2022/12/05 11:37:12;;;;;;;;;;;21.50;42.40;;;;;;5033400;28;19975;-56
2022/12/05 11:39:37;;;;;;;;;;;21.50;42.40;;;;;;5029594;28;19913;-56
2022/12/05 11:42:09;;;;;;;;;;;21.50;42.60;;;;;;5052569;27;19965;-55
2022/12/05 11:44:40;;;;;;;;;;;21.50;42.50;;;;;;5063197;27;19916;-55
2022/12/05 11:47:24;;;;;;;;;;;21.60;42.50;;;;;;5113798;27;20386;-56
2022/12/05 11:50:13;;;;;;;;;;;21.60;42.40;;;;;;5056503;28;19939;-56
2022/12/05 11:52:57;;;;;;;;;;;21.60;42.50;;;;;;5065653;28;20014;-57
2022/12/05 11:55:29;;;;;;;;;;;21.70;42.50;;;;;;5055575;27;19924;-55
2022/12/05 11:58:13;;;;;;;;;;;21.70;42.40;;;;;;5039869;28;20398;-55
2022/12/05 12:00:45;;;;;;;;;;;21.70;42.40;;;;;;5063589;27;20398;-56
2022/12/05 12:03:19;;;;;;;;;;;21.70;42.40;;;;;;5105571;27;19912;-56
2022/12/05 12:05:51;;;;;;;;;;;21.70;42.40;;;;;;5057330;27;19912;-56
2022/12/05 12:08:23;;;;;;;;;;;21.70;42.40;;;;;;5063081;28;20375;-55
2022/12/05 12:10:58;;;;;;;;;;;21.70;42.40;;;;;;5044552;28;20261;-56
2022/12/05 12:13:30;;;;;;;;;;;21.70;42.40;;;;;;5059006;28;19921;-56
2022/12/05 12:16:09;;;;;;;;;;;21.80;42.40;;;;;;5053213;27;19916;-54
2022/12/05 12:18:57;;;;;;;;;;;21.70;42.30;;;;;;5051463;28;19916;-55
2022/12/05 12:21:39;;;;;;;;;;;21.70;42.20;;;;;;5051659;27;19924;-54
2022/12/05 12:24:04;;;;;;;;;;;21.70;42.10;;;;;;5034194;27;20039;-55
2022/12/05 12:26:32;;;;;;;;;;;21.70;42.10;;;;;;5073793;27;19995;-56
2022/12/05 12:29:02;;;;;;;;;;;21.70;42.20;;;;;;5060277;27;19913;-56
2022/12/05 12:31:34;;;;;;;;;;;21.70;42.40;;;;;;5073910;27;20025;-56
2022/12/05 12:34:11;;;;;;;;;;;21.70;42.40;;;;;;5090843;27;20008;-58
2022/12/05 12:36:45;;;;;;;;;;;21.70;42.60;;;;;;5061321;27;24612;-56
2022/12/05 12:39:29;;;;;;;;;;;21.70;42.50;;;;;;5076044;27;19919;-55
2022/12/05 12:41:55;;;;;;;;;;;21.70;42.50;;;;;;5075267;27;19913;-56
2022/12/05 12:44:20;;;;;;;;;;;21.80;42.60;;;;;;5075011;27;20391;-54
2022/12/05 12:46:52;;;;;;;;;;;21.80;42.70;;;;;;5060194;28;19913;-54
2022/12/05 12:49:24;;;;;;;;;;;21.90;42.80;;;;;;5073783;27;20294;-56
2022/12/05 12:51:52;;;;;;;;;;;21.80;42.60;;;;;;5055822;27;20018;-56
2022/12/05 12:54:24;;;;;;;;;;;21.90;42.70;;;;;;5054610;27;19912;-55
2022/12/05 12:56:58;;;;;;;;;;;21.90;42.60;;;;;;5092388;27;20767;-56
2022/12/05 12:59:27;;;;;;;;;;;21.90;42.80;;;;;;5055797;27;19973;-56
2022/12/05 13:02:01;;;;;;;;;;;21.90;42.80;;;;;;5064800;27;19912;-57
2022/12/05 13:04:28;;;;;;;;;;;21.90;42.80;;;;;;5063825;27;20011;-55
2022/12/05 13:06:57;;;;;;;;;;;22.00;42.70;;;;;;5067655;27;19973;-55
2022/12/05 13:09:25;;;;;;;;;;;21.90;42.60;;;;;;5062105;27;19944;-56
2022/12/05 13:11:50;;;;;;;;;;;22.00;42.70;;;;;;5039689;27;20443;-55
2022/12/05 13:14:16;;;;;;;;;;;22.00;42.80;;;;;;5075566;27;19917;-55
2022/12/05 13:16:43;;;;;;;;;;;22.00;42.80;;;;;;5043086;27;20439;-56
2022/12/05 13:19:29;;;;;;;;;;;22.00;42.80;;;;;;5042289;27;20362;-57
2022/12/05 13:21:56;;;;;;;;;;;22.00;42.70;;;;;;5071180;27;19932;-55
2022/12/05 13:24:22;;;;;;;;;;;22.00;42.70;;;;;;5090121;27;19911;-55
2022/12/05 13:26:47;;;;;;;;;;;22.00;42.80;;;;;;5062966;27;19912;-56
2022/12/05 13:29:42;;;;;;;;;;;22.10;42.80;;;;;;5045683;27;20989;-56
2022/12/05 13:32:24;;;;;;;;;;;22.10;42.70;;;;;;5066360;27;19917;-56
2022/12/05 13:34:50;;;;;;;;;;;22.10;42.80;;;;;;5057419;27;20309;-54
2022/12/05 13:42:47;;;;;;;;;;;22.10;42.70;;;;;;5111880;27;20383;-56
2022/12/05 13:45:18;;;;;;;;;;;22.00;42.60;;;;;;5049732;27;19915;-55
2022/12/05 13:47:50;;;;;;;;;;;22.10;42.80;;;;;;5034078;27;19920;-56
2022/12/05 13:50:16;;;;;;;;;;;22.10;42.70;;;;;;5073494;27;20008;-54
2022/12/05 13:52:48;;;;;;;;;;;22.10;42.60;;;;;;5060295;27;20420;-56
2022/12/05 13:55:26;;;;;;;;;;;22.10;42.60;;;;;;5054319;27;20372;-56
2022/12/05 13:57:52;;;;;;;;;;;22.20;42.70;;;;;;5064031;27;19971;-55
2022/12/05 14:00:36;;;;;;;;;;;22.10;42.70;;;;;;5055683;27;19912;-55
2022/12/05 14:03:05;;;;;;;;;;;22.10;42.70;;;;;;5053781;27;19913;-56
2022/12/05 14:05:35;;;;;;;;;;;22.10;42.70;;;;;;5080261;27;20301;-56
2022/12/05 14:08:01;;;;;;;;;;;22.10;42.70;;;;;;5075231;27;20360;-56
2022/12/05 14:10:27;;;;;;;;;;;22.10;42.70;;;;;;5052589;27;19923;-55
2022/12/05 14:12:59;;;;;;;;;;;22.10;42.70;;;;;;5056135;27;19921;-55
2022/12/05 14:15:34;;;;;;;;;;;22.10;42.60;;;;;;5054288;27;19921;-55
2022/12/05 14:18:04;;;;;;;;;;;22.20;42.70;;;;;;5034860;28;19913;-56
2022/12/05 14:20:45;;;;;;;;;;;22.20;42.60;;;;;;5036784;27;20024;-56
2022/12/05 14:23:30;;;;;;;;;;;22.20;42.70;;;;;;5049277;28;19913;-56
2022/12/05 14:26:14;;;;;;;;;;;22.20;42.70;;;;;;5053018;28;19956;-56
2022/12/05 14:28:55;;;;;;;;;;;22.20;42.80;;;;;;5049792;27;19917;-55
2022/12/05 14:31:20;;;;;;;;;;;22.10;42.70;;;;;;5056662;27;19912;-55
2022/12/05 14:33:47;;;;;;;;;;;22.20;42.90;;;;;;5053959;27;20353;-54
2022/12/05 14:36:15;;;;;;;;;;;22.20;42.90;;;;;;5039809;28;19939;-55
2022/12/05 14:38:41;;;;;;;;;;;22.20;42.70;;;;;;5041186;27;19923;-55